This is the latest recevied weather packets stored in our database for station/object SP2FH-13. If no packets are shown the sender has not sent any weather packets the latest 10 day(s).
| Time | Temp. | Humidity | Pressure | Rain* | Wind** | Luminosity | Snow |
|---|---|---|---|---|---|---|---|
| 1777513283 | -3.33° C | 76% | 1020 hPa | - | - | - | - |
| 1777512982 | -3.33° C | 75% | 1020 hPa | - | - | - | - |
| 1777512380 | -3.33° C | 76% | 1020 hPa | - | - | - | - |
| 1777512079 | -2.78° C | 74% | 1020 hPa | - | - | - | - |
| 1777511778 | -2.78° C | 74% | 1020 hPa | - | - | - | - |
| 1777511477 | -2.78° C | 74% | 1020 hPa | - | - | - | - |
| 1777511176 | -2.78° C | 74% | 1019.9 hPa | - | - | - | - |
| 1777510875 | -2.78° C | 74% | 1019.9 hPa | - | - | - | - |
| 1777510574 | -2.22° C | 74% | 1020 hPa | - | - | - | - |
| 1777510272 | -2.22° C | 74% | 1020 hPa | - | - | - | - |
| 1777509671 | -2.78° C | 76% | 1019.9 hPa | - | - | - | - |
| 1777509369 | -2.22° C | 73% | 1019.9 hPa | - | - | - | - |
| 1777509068 | -1.67° C | 71% | 1020 hPa | - | - | - | - |
| 1777508768 | -2.22° C | 71% | 1020 hPa | - | - | - | - |
| 1777508466 | -2.78° C | 73% | 1020 hPa | - | - | - | - |
| 1777507863 | -2.22° C | 74% | 1019.9 hPa | - | - | - | - |
| 1777507563 | -2.22° C | 72% | 1019.9 hPa | - | - | - | - |
| 1777506960 | -1.67° C | 74% | 1019.9 hPa | - | - | - | - |
| 1777506358 | -1.67° C | 68% | 1019.9 hPa | - | - | - | - |
| 1777505756 | -1.11° C | 67% | 1019.9 hPa | - | - | - | - |
| 1777505455 | -0.56° C | 66% | 1020 hPa | - | - | - | - |
| 1777502444 | 1.67° C | 58% | 1019.9 hPa | - | - | - | - |
| 1777501240 | 1.11° C | 58% | 1019.9 hPa | - | - | - | - |
| 1777500036 | 1.67° C | 56% | 1019.8 hPa | - | - | - | - |
| 1777496422 | 2.78° C | 55% | 1019.5 hPa | - | - | - | - |
* Rain since midnight (hover to see other rain measurements)
** Current wind speed in m/s (hover to see current wind gust speed)